createdAt,value
2024-04-04T00:00:34.024Z,197.65
2024-04-04T00:01:33.887Z,198.20
2024-04-04T00:02:33.935Z,197.68
2024-04-04T00:03:33.926Z,197.05
2024-04-04T00:04:33.947Z,197.78
2024-04-04T00:05:34.015Z,199.16
2024-04-04T00:06:34.013Z,197.65
2024-04-04T00:07:34.139Z,197.00
2024-04-04T00:08:34.034Z,196.45
2024-04-04T00:09:34.042Z,198.32
2024-04-04T00:10:34.175Z,197.42
2024-04-04T00:11:34.104Z,199.64
2024-04-04T00:12:34.168Z,195.90
2024-04-04T00:13:34.182Z,197.93
2024-04-04T00:14:34.174Z,197.66
2024-04-04T00:15:34.188Z,198.27
2024-04-04T00:16:34.197Z,197.20
2024-04-04T00:17:34.208Z,197.79
2024-04-04T00:18:34.257Z,196.49
2024-04-04T00:19:34.261Z,197.67
2024-04-04T00:20:34.388Z,198.97
2024-04-04T00:21:34.267Z,197.53
2024-04-04T00:22:34.285Z,197.51
2024-04-04T00:23:34.445Z,197.05
2024-04-04T00:24:34.300Z,197.96
2024-04-04T00:25:34.355Z,196.10
2024-04-04T00:26:34.361Z,199.62
2024-04-04T00:27:34.423Z,199.91
2024-04-04T00:28:34.385Z,198.04
2024-04-04T00:29:34.434Z,197.77
2024-04-04T00:30:34.388Z,198.38
2024-04-04T00:31:34.404Z,196.00
2024-04-04T00:32:34.413Z,197.12
2024-04-04T00:33:34.523Z,199.05
2024-04-04T00:34:34.466Z,195.56
2024-04-04T00:35:34.531Z,197.95
2024-04-04T00:36:34.535Z,199.33
2024-04-04T00:37:34.591Z,197.44
2024-04-04T00:38:34.600Z,198.17
2024-04-04T00:39:34.667Z,200.00
2024-04-04T00:40:34.671Z,198.61
2024-04-04T00:41:34.775Z,196.94
2024-04-04T00:42:34.752Z,197.72
2024-04-04T00:43:34.832Z,195.81
2024-04-04T00:44:34.788Z,197.50
2024-04-04T00:45:34.807Z,197.86
2024-04-04T00:46:34.802Z,196.92
2024-04-04T00:47:34.811Z,195.89
2024-04-04T00:48:35.384Z,196.36
2024-04-04T00:49:34.878Z,197.29
2024-04-04T00:50:34.882Z,196.04
2024-04-04T00:51:34.884Z,197.05
2024-04-04T00:52:34.900Z,197.88
2024-04-04T00:53:35.045Z,196.45
2024-04-04T00:54:34.964Z,196.43
2024-04-04T00:55:34.975Z,197.41
2024-04-04T00:56:34.974Z,198.66
2024-04-04T00:57:34.975Z,196.95
2024-04-04T00:58:34.995Z,196.23
2024-04-04T00:59:35.049Z,195.17
2024-04-04T01:00:35.088Z,196.50
2024-04-04T01:01:35.006Z,199.66
2024-04-04T01:02:35.066Z,194.99
2024-04-04T01:03:35.075Z,196.65
2024-04-04T01:04:35.080Z,196.08
2024-04-04T01:05:35.089Z,196.75
2024-04-04T01:06:35.141Z,198.19
2024-04-04T01:07:35.149Z,195.84
2024-04-04T01:08:35.137Z,195.87
2024-04-04T01:09:35.191Z,196.34
2024-04-04T01:10:35.183Z,195.07
2024-04-04T01:11:35.211Z,197.46
2024-04-04T01:12:35.310Z,196.31
2024-04-04T01:13:35.263Z,196.61
2024-04-04T01:14:35.323Z,196.87
2024-04-04T01:15:35.266Z,197.14
2024-04-04T01:16:35.318Z,196.93
2024-04-04T01:17:35.343Z,198.50
2024-04-04T01:18:35.383Z,199.15
2024-04-04T01:19:35.340Z,198.82
2024-04-04T01:20:35.354Z,197.46
2024-04-04T01:21:35.500Z,199.98
2024-04-04T01:22:35.414Z,196.02
2024-04-04T01:23:35.388Z,196.50
2024-04-04T01:24:35.481Z,200.00
2024-04-04T01:25:35.431Z,197.52
2024-04-04T01:26:35.496Z,196.89
2024-04-04T01:27:35.488Z,197.26
2024-04-04T01:28:35.461Z,198.01
2024-04-04T01:29:35.506Z,199.04
2024-04-04T01:30:35.515Z,197.95
2024-04-04T01:31:35.523Z,196.38
2024-04-04T01:32:35.540Z,197.43
2024-04-04T01:33:35.538Z,197.52
2024-04-04T01:34:35.547Z,197.08
2024-04-04T01:35:35.553Z,198.50
2024-04-04T01:36:35.566Z,198.66
2024-04-04T01:37:35.573Z,198.35
2024-04-04T01:38:35.584Z,197.57
2024-04-04T01:39:35.652Z,197.11
2024-04-04T01:40:35.637Z,198.29
2024-04-04T01:41:35.620Z,199.04
2024-04-04T01:42:35.651Z,196.67
2024-04-04T01:43:35.732Z,197.95
2024-04-04T01:44:35.717Z,197.30
2024-04-04T01:45:35.740Z,197.90
2024-04-04T01:46:35.745Z,197.33
2024-04-04T01:47:35.733Z,198.26
2024-04-04T01:48:35.762Z,196.90
2024-04-04T01:49:35.908Z,197.73
2024-04-04T01:50:35.799Z,197.84
2024-04-04T01:51:35.921Z,197.43
2024-04-04T01:52:35.984Z,198.07
2024-04-04T01:53:35.898Z,196.64
2024-04-04T01:54:35.890Z,196.18
2024-04-04T01:55:35.890Z,197.98
2024-04-04T01:56:35.902Z,196.95
2024-04-04T01:57:35.930Z,196.42
2024-04-04T01:58:35.921Z,196.04
2024-04-04T01:59:35.971Z,197.79
2024-04-04T02:00:36.071Z,198.07
2024-04-04T02:01:36.137Z,196.55
2024-04-04T02:02:36.073Z,196.07
2024-04-04T02:03:36.002Z,197.89
2024-04-04T02:04:36.119Z,197.23
2024-04-04T02:05:36.061Z,197.79
2024-04-04T02:06:36.059Z,198.76
2024-04-04T02:07:36.079Z,198.35
2024-04-04T02:08:36.088Z,197.29
2024-04-04T02:09:36.096Z,196.92
2024-04-04T02:10:36.112Z,196.88
2024-04-04T02:11:36.128Z,197.20
2024-04-04T02:12:36.160Z,196.39
2024-04-04T02:13:36.321Z,196.31
2024-04-04T02:14:36.154Z,198.13
2024-04-04T02:15:36.184Z,197.57
2024-04-04T02:16:36.261Z,200.00
2024-04-04T02:17:36.251Z,195.84
2024-04-04T02:18:36.269Z,195.57
2024-04-04T02:19:36.317Z,198.55
2024-04-04T02:20:36.330Z,199.04
2024-04-04T02:21:36.331Z,198.33
2024-04-04T02:22:36.334Z,196.50
2024-04-04T02:23:36.443Z,196.76
2024-04-04T02:24:36.400Z,197.52
2024-04-04T02:25:36.461Z,197.59
2024-04-04T02:26:36.516Z,196.59
2024-04-04T02:27:36.475Z,198.17
2024-04-04T02:28:36.515Z,196.07
2024-04-04T02:29:36.644Z,198.08
2024-04-04T02:30:36.572Z,195.09
2024-04-04T02:31:36.546Z,197.38
2024-04-04T02:32:36.570Z,196.18
2024-04-04T02:33:36.606Z,197.59
2024-04-04T02:34:36.697Z,196.49
2024-04-04T02:36:31.663Z,50.00
2024-04-04T02:37:31.321Z,50.00
2024-04-04T02:38:31.326Z,50.00
2024-04-04T02:39:31.290Z,50.00
2024-04-04T02:40:31.294Z,50.00
2024-04-04T02:41:31.289Z,51.58
2024-04-04T02:42:31.403Z,50.00
2024-04-04T02:43:31.304Z,51.55
2024-04-04T02:44:31.304Z,52.01
2024-04-04T02:45:31.248Z,53.82
2024-04-04T02:46:31.261Z,51.88
2024-04-04T02:47:31.299Z,52.75
2024-04-04T02:48:31.289Z,52.67
2024-04-04T02:49:31.301Z,53.63
2024-04-04T02:50:31.382Z,52.41
2024-04-04T02:51:31.316Z,53.12
2024-04-04T02:52:31.281Z,52.58
2024-04-04T02:53:31.371Z,52.29
2024-04-04T02:54:31.311Z,53.69
2024-04-04T02:55:31.325Z,52.95
2024-04-04T02:56:31.296Z,52.38
2024-04-04T02:57:31.307Z,53.65
2024-04-04T02:58:31.282Z,51.57
2024-04-04T02:59:31.424Z,54.08
2024-04-04T03:00:31.330Z,51.53
2024-04-04T03:01:31.349Z,51.33
2024-04-04T03:02:31.415Z,51.57
2024-04-04T03:03:31.445Z,52.80
2024-04-04T03:04:31.379Z,51.55
2024-04-04T03:05:32.814Z,53.95
2024-04-04T03:06:31.351Z,50.91
2024-04-04T03:07:31.368Z,52.50
2024-04-04T03:08:31.321Z,52.78
2024-04-04T03:09:31.339Z,51.89
2024-04-04T03:10:31.315Z,51.29
2024-04-04T03:11:31.346Z,53.06
2024-04-04T03:12:31.660Z,52.47
2024-04-04T03:13:31.316Z,54.11
2024-04-04T03:14:31.326Z,53.94
2024-04-04T03:15:31.436Z,52.25
2024-04-04T03:16:31.332Z,52.45
2024-04-04T03:17:31.337Z,50.00
2024-04-04T03:18:31.344Z,51.71
2024-04-04T03:19:31.360Z,52.78
2024-04-04T03:20:31.530Z,52.49
2024-04-04T03:21:31.450Z,54.32
2024-04-04T03:22:31.476Z,54.08
2024-04-04T03:23:31.475Z,54.71
2024-04-04T03:24:31.591Z,55.34
2024-04-04T03:25:31.517Z,51.90
2024-04-04T03:26:31.522Z,53.83
2024-04-04T03:27:31.641Z,54.53
2024-04-04T03:28:31.615Z,53.63
2024-04-04T03:29:31.665Z,55.96
2024-04-04T03:30:31.642Z,53.83
2024-04-04T03:31:31.740Z,54.75
2024-04-04T03:32:31.759Z,53.44
2024-04-04T03:33:31.771Z,54.40
2024-04-04T03:34:31.861Z,54.48
2024-04-04T03:35:31.886Z,54.54
2024-04-04T03:36:31.998Z,54.43
2024-04-04T03:37:31.992Z,55.12
2024-04-04T03:38:31.999Z,54.72
2024-04-04T03:39:32.117Z,54.18
2024-04-04T03:40:32.185Z,55.33
2024-04-04T03:41:32.120Z,55.26
2024-04-04T03:42:32.380Z,53.56
2024-04-04T03:43:32.202Z,54.27
2024-04-04T03:44:32.238Z,54.34
2024-04-04T03:45:32.249Z,55.06
2024-04-04T03:46:32.518Z,55.77
2024-04-04T03:47:32.384Z,56.48
2024-04-04T03:48:32.428Z,55.08
2024-04-04T03:49:32.491Z,56.22
2024-04-04T03:50:32.592Z,56.15
2024-04-04T03:51:32.970Z,55.22
2024-04-04T03:52:32.619Z,54.53
2024-04-04T03:53:32.807Z,56.29
2024-04-04T03:54:32.642Z,55.89
2024-04-04T03:55:32.808Z,55.13
2024-04-04T03:56:32.830Z,56.58
2024-04-04T03:57:32.729Z,56.49
2024-04-04T03:58:32.826Z,55.68
2024-04-04T03:59:32.870Z,56.08
2024-04-04T04:00:32.778Z,56.33
2024-04-04T04:01:32.801Z,55.38
2024-04-04T04:02:32.931Z,55.94
2024-04-04T04:03:32.876Z,53.20
2024-04-04T04:04:32.895Z,55.90
2024-04-04T04:05:32.992Z,55.37
2024-04-04T04:06:33.495Z,56.68
2024-04-04T04:07:33.510Z,56.82
2024-04-04T04:08:32.917Z,53.31
2024-04-04T04:09:33.023Z,55.10
2024-04-04T04:10:33.035Z,54.87
2024-04-04T04:11:33.040Z,52.43
2024-04-04T04:12:33.080Z,50.46
2024-04-04T04:13:33.255Z,50.00
2024-04-04T04:14:33.158Z,52.70
2024-04-04T04:15:33.172Z,49.40
2024-04-04T04:16:33.142Z,50.00
2024-04-04T04:17:33.186Z,50.59
2024-04-04T04:18:33.383Z,50.00
2024-04-04T04:19:33.226Z,50.29
2024-04-04T04:20:33.211Z,49.82
2024-04-04T04:21:33.276Z,51.75
2024-04-04T04:22:33.340Z,50.06
2024-04-04T04:23:33.392Z,50.00
2024-04-04T04:24:33.461Z,51.99
2024-04-04T04:25:33.400Z,51.53
2024-04-04T04:26:33.451Z,51.06
2024-04-04T04:27:33.466Z,50.00
2024-04-04T04:28:33.545Z,51.82
2024-04-04T04:29:33.594Z,51.78
2024-04-04T04:30:40.857Z,50.00
2024-04-04T04:31:48.151Z,50.00
2024-04-04T04:32:48.144Z,50.00
2024-04-04T04:33:48.154Z,50.00
2024-04-04T04:34:48.148Z,50.00
2024-04-04T04:35:48.260Z,50.00
2024-04-04T04:36:48.264Z,51.36
2024-04-04T04:37:48.116Z,50.97
2024-04-04T04:38:48.196Z,50.15
2024-04-04T04:39:48.147Z,51.48
2024-04-04T04:40:48.168Z,51.69
2024-04-04T04:41:48.230Z,50.00
2024-04-04T04:42:48.193Z,51.63
2024-04-04T04:43:48.218Z,52.38
2024-04-04T04:44:48.218Z,51.84
2024-04-04T04:45:48.183Z,53.97
2024-04-04T04:46:48.238Z,50.97
2024-04-04T04:47:48.137Z,52.19
2024-04-04T04:48:48.250Z,52.21
2024-04-04T04:49:48.159Z,50.88
2024-04-04T04:50:48.217Z,51.09
2024-04-04T04:51:48.277Z,50.45
2024-04-04T04:52:48.249Z,51.83
2024-04-04T04:53:48.171Z,52.37
2024-04-04T04:54:48.181Z,50.19
2024-04-04T04:55:48.148Z,52.10
2024-04-04T04:56:48.214Z,51.24
2024-04-04T04:57:48.233Z,53.49
2024-04-04T04:58:48.274Z,51.11
2024-04-04T04:59:48.416Z,50.77
2024-04-04T05:00:48.221Z,52.22
2024-04-04T05:01:48.197Z,53.55
2024-04-04T05:02:48.136Z,53.46
2024-04-04T05:03:48.655Z,52.77
2024-04-04T05:04:48.257Z,52.90
2024-04-04T05:05:48.164Z,55.02
2024-04-04T05:06:48.171Z,53.65
2024-04-04T05:07:48.182Z,54.01
2024-04-04T05:08:48.188Z,54.15
2024-04-04T05:09:48.144Z,55.37
2024-04-04T05:10:48.207Z,54.03
2024-04-04T05:11:48.296Z,53.27
2024-04-04T05:12:48.186Z,53.75
2024-04-04T05:13:48.205Z,53.50
2024-04-04T05:14:48.199Z,52.29
2024-04-04T05:15:48.204Z,56.53
2024-04-04T05:16:48.296Z,53.02
2024-04-04T05:17:48.193Z,55.15
2024-04-04T05:18:48.245Z,54.36
2024-04-04T05:19:48.267Z,56.15
2024-04-04T05:20:48.272Z,56.38
2024-04-04T05:21:48.228Z,57.40
2024-04-04T05:22:48.236Z,55.62
2024-04-04T05:23:48.174Z,57.19
2024-04-04T05:24:48.191Z,56.59
2024-04-04T05:25:48.199Z,56.77
2024-04-04T05:26:48.205Z,57.86
2024-04-04T05:27:48.232Z,53.79
2024-04-04T05:28:48.231Z,56.99
2024-04-04T05:29:48.222Z,57.33
2024-04-04T05:30:48.189Z,55.92
2024-04-04T05:31:48.244Z,57.89
2024-04-04T05:32:48.541Z,55.84
2024-04-04T05:33:48.203Z,56.01
2024-04-04T05:34:48.211Z,54.35
2024-04-04T05:35:48.243Z,53.99
2024-04-04T05:36:48.239Z,56.42
2024-04-04T05:37:48.391Z,55.18
2024-04-04T05:38:48.426Z,57.41
2024-04-04T05:39:49.309Z,60.39
2024-04-04T05:40:49.425Z,61.80
2024-04-04T05:41:48.530Z,63.59
2024-04-04T05:42:48.432Z,65.62
2024-04-04T05:43:49.651Z,66.01
2024-04-04T05:44:48.437Z,70.66
2024-04-04T05:45:48.431Z,71.06
2024-04-04T05:46:48.444Z,72.76
2024-04-04T05:47:48.501Z,76.60
2024-04-04T05:48:49.399Z,79.52
2024-04-04T05:49:48.519Z,81.31
2024-04-04T05:50:49.858Z,84.63
2024-04-04T05:51:48.570Z,84.96
2024-04-04T05:52:51.467Z,93.42
2024-04-04T05:53:49.205Z,93.87
2024-04-04T05:54:48.963Z,98.44
2024-04-04T05:55:48.754Z,99.79
2024-04-04T05:56:48.575Z,103.17
2024-04-04T05:57:48.528Z,107.54
2024-04-04T05:58:48.796Z,112.35
2024-04-04T05:59:48.942Z,111.73
2024-04-04T06:00:48.774Z,116.15
2024-04-04T06:01:52.945Z,118.36
2024-04-04T06:02:48.971Z,118.50
2024-04-04T06:03:48.902Z,119.24
2024-04-04T06:04:49.593Z,121.52
2024-04-04T06:05:51.351Z,125.33
2024-04-04T06:06:48.592Z,130.00
2024-04-04T06:07:54.789Z,131.52
2024-04-04T06:08:48.597Z,131.71
2024-04-04T06:09:51.174Z,132.54
2024-04-04T06:10:48.555Z,131.87
2024-04-04T06:11:49.380Z,133.07
2024-04-04T06:12:48.929Z,135.30
2024-04-04T06:13:48.574Z,140.20
2024-04-04T06:14:48.878Z,146.11
2024-04-04T06:15:48.604Z,152.64
2024-04-04T06:16:48.752Z,156.25
2024-04-04T06:17:49.695Z,160.55
2024-04-04T06:18:48.961Z,157.08
2024-04-04T06:19:48.733Z,160.56
2024-04-04T06:20:50.620Z,157.58
2024-04-04T06:21:48.576Z,161.73
2024-04-04T06:22:48.659Z,159.95
2024-04-04T06:23:52.009Z,161.82
2024-04-04T06:24:50.423Z,160.31
2024-04-04T06:25:48.618Z,161.87
2024-04-04T06:26:48.564Z,162.63
2024-04-04T06:27:48.799Z,161.49
2024-04-04T06:28:51.766Z,162.02
2024-04-04T06:29:48.687Z,163.23
2024-04-04T06:30:48.847Z,161.23
2024-04-04T06:31:51.229Z,164.87
2024-04-04T06:32:51.215Z,164.92
2024-04-04T06:33:50.448Z,164.98
2024-04-04T06:34:48.823Z,164.76
2024-04-04T06:35:48.806Z,162.95
2024-04-04T06:36:49.246Z,163.62
2024-04-04T06:37:48.847Z,161.41
2024-04-04T06:38:48.804Z,160.29
2024-04-04T06:39:49.079Z,160.30
2024-04-04T06:40:48.805Z,159.26
2024-04-04T06:41:48.818Z,158.33
2024-04-04T06:42:52.436Z,157.71
2024-04-04T06:43:48.828Z,157.11
2024-04-04T06:44:49.373Z,155.21
2024-04-04T06:45:49.366Z,157.10
2024-04-04T06:46:48.810Z,154.47
2024-04-04T06:47:49.336Z,152.35
2024-04-04T06:48:49.796Z,152.32
2024-04-04T06:49:48.996Z,154.18
2024-04-04T06:50:52.724Z,152.38
2024-04-04T06:51:49.805Z,152.39
2024-04-04T06:52:48.916Z,151.65
2024-04-04T06:53:49.358Z,153.58
2024-04-04T06:54:48.817Z,152.20
2024-04-04T06:55:48.824Z,154.08
2024-04-04T06:56:54.170Z,153.32
2024-04-04T06:58:57.634Z,50.00
2024-04-04T06:59:57.953Z,50.00
2024-04-04T07:00:57.497Z,50.00
2024-04-04T07:02:02.627Z,50.00
2024-04-04T07:02:57.619Z,50.00
2024-04-04T07:03:59.612Z,50.00
2024-04-04T07:04:57.578Z,50.00
2024-04-04T07:05:57.535Z,50.00
2024-04-04T07:06:57.647Z,50.00
2024-04-04T07:07:57.511Z,50.61
2024-04-04T07:08:57.515Z,52.14
2024-04-04T07:09:57.507Z,53.13
2024-04-04T07:10:57.838Z,52.62
2024-04-04T07:12:00.155Z,54.33
2024-04-04T07:12:57.586Z,54.51
2024-04-04T07:13:57.545Z,55.25
2024-04-04T07:14:57.703Z,56.54
2024-04-04T07:15:58.203Z,56.73
2024-04-04T07:16:57.760Z,58.21
2024-04-04T07:17:57.511Z,57.12
2024-04-04T07:18:57.754Z,55.80
2024-04-04T07:19:58.309Z,56.52
2024-04-04T07:20:57.648Z,56.69
2024-04-04T07:21:58.367Z,56.95
2024-04-04T07:23:04.268Z,55.89
2024-04-04T07:23:57.617Z,56.04
2024-04-04T07:24:58.861Z,56.20
2024-04-04T07:25:57.542Z,56.41
2024-04-04T07:26:58.191Z,56.51
2024-04-04T07:28:07.580Z,56.38
2024-04-04T07:28:59.440Z,56.06
2024-04-04T07:29:58.764Z,56.07
2024-04-04T07:30:57.608Z,56.40
2024-04-04T07:31:58.195Z,55.35
2024-04-04T07:32:57.528Z,56.98
2024-04-04T07:33:57.518Z,53.61
2024-04-04T07:34:58.269Z,53.40
2024-04-04T07:35:57.536Z,56.01
2024-04-04T07:36:57.554Z,54.69
2024-04-04T07:37:57.625Z,56.72
2024-04-04T07:38:57.553Z,56.82
2024-04-04T07:39:57.772Z,55.39
2024-04-04T07:40:57.566Z,54.05
2024-04-04T07:41:57.588Z,50.83
2024-04-04T07:42:58.140Z,50.16
2024-04-04T07:43:57.599Z,50.99
2024-04-04T07:44:58.397Z,51.52
2024-04-04T07:45:57.714Z,50.62
2024-04-04T07:46:57.739Z,50.30
2024-04-04T07:47:57.769Z,51.16
2024-04-04T07:48:57.774Z,50.17
2024-04-04T07:49:57.953Z,50.00
2024-04-04T07:50:58.725Z,50.00
2024-04-04T07:51:57.951Z,50.49
2024-04-04T07:52:58.134Z,50.00
2024-04-04T07:53:58.071Z,50.12
2024-04-04T07:54:58.230Z,50.00
2024-04-04T07:55:58.767Z,50.00
2024-04-04T07:56:58.299Z,50.00
2024-04-04T07:58:00.169Z,50.94
2024-04-04T07:58:58.364Z,51.34
2024-04-04T07:59:58.688Z,52.35
2024-04-04T08:00:58.380Z,51.11
2024-04-04T08:01:58.646Z,50.00
2024-04-04T08:02:58.497Z,51.31
2024-04-04T08:03:59.515Z,50.00
2024-04-04T08:04:59.376Z,52.54
2024-04-04T08:05:58.553Z,50.23
2024-04-04T08:06:58.672Z,50.82
2024-04-04T08:07:58.640Z,50.21
2024-04-04T08:08:58.595Z,50.38
2024-04-04T08:09:58.548Z,50.00
2024-04-04T08:10:58.602Z,52.95
2024-04-04T08:11:59.175Z,51.27
2024-04-04T08:12:58.601Z,51.11
2024-04-04T08:13:58.596Z,50.25
2024-04-04T08:14:58.564Z,52.22
2024-04-04T08:15:58.577Z,50.00
2024-04-04T08:16:58.674Z,50.45
2024-04-04T08:17:58.595Z,52.05
2024-04-04T08:18:58.644Z,51.62
2024-04-04T08:19:58.758Z,53.47
2024-04-04T08:20:58.663Z,51.15
2024-04-04T08:21:59.187Z,55.10
2024-04-04T08:22:58.836Z,57.01
2024-04-04T08:23:58.891Z,60.71
2024-04-04T08:25:00.059Z,61.62
2024-04-04T08:25:59.625Z,60.09
2024-04-04T08:26:59.748Z,56.41
2024-04-04T08:27:59.190Z,55.44
2024-04-04T08:28:59.195Z,57.30
2024-04-04T08:29:59.310Z,58.25
2024-04-04T08:30:59.266Z,62.86
2024-04-04T08:31:59.259Z,60.14
2024-04-04T08:32:59.260Z,65.75
2024-04-04T08:33:59.328Z,66.04
2024-04-04T08:34:59.279Z,63.11
2024-04-04T08:35:59.325Z,52.37
2024-04-04T08:37:00.060Z,50.00
2024-04-04T08:37:59.345Z,50.00
2024-04-04T08:38:59.353Z,49.69
2024-04-04T08:39:59.356Z,50.37
2024-04-04T08:40:59.364Z,51.21
2024-04-04T08:41:59.365Z,50.00
2024-04-04T08:42:59.379Z,49.85
2024-04-04T08:43:59.597Z,51.01
2024-04-04T08:44:59.491Z,51.18
2024-04-04T08:45:59.603Z,55.59
2024-04-04T08:47:00.284Z,62.92
2024-04-04T08:47:59.737Z,61.51
2024-04-04T08:48:59.839Z,59.79
2024-04-04T08:50:00.160Z,67.34
2024-04-04T08:51:02.666Z,67.38
2024-04-04T08:52:01.461Z,66.01
2024-04-04T08:53:00.145Z,66.43
2024-04-04T08:54:00.116Z,69.19
2024-04-04T08:55:02.200Z,75.20
2024-04-04T08:56:03.149Z,83.08
2024-04-04T08:57:01.021Z,96.49
2024-04-04T08:58:01.168Z,97.30
2024-04-04T08:59:00.202Z,93.92
2024-04-04T09:00:00.233Z,86.29
2024-04-04T09:01:05.397Z,84.34
2024-04-04T09:02:02.195Z,84.39
2024-04-04T09:03:00.288Z,83.64
2024-04-04T09:04:00.238Z,83.72
2024-04-04T09:05:00.387Z,82.59
2024-04-04T09:06:00.202Z,86.08
2024-04-04T09:07:02.521Z,85.81
2024-04-04T09:08:00.245Z,84.81
2024-04-04T09:09:05.885Z,85.51
2024-04-04T09:10:00.545Z,85.62
2024-04-04T09:11:01.530Z,85.96
2024-04-04T09:12:00.535Z,84.69
2024-04-04T09:13:03.056Z,86.98
2024-04-04T09:14:00.717Z,86.43
2024-04-04T09:15:10.170Z,88.86
2024-04-04T09:16:01.735Z,89.00
2024-04-04T09:17:01.092Z,89.97
2024-04-04T09:18:01.735Z,92.21
2024-04-04T09:19:04.174Z,96.80
2024-04-04T09:20:00.838Z,89.41
2024-04-04T09:21:00.758Z,90.83
2024-04-04T09:22:00.928Z,93.24
2024-04-04T09:23:01.971Z,99.09
2024-04-04T09:24:07.579Z,102.80
2024-04-04T09:25:08.265Z,89.39
2024-04-04T09:26:02.682Z,89.64
2024-04-04T09:27:00.925Z,89.98
2024-04-04T09:28:01.743Z,93.90
2024-04-04T09:29:00.767Z,102.53
2024-04-04T09:30:01.191Z,114.10
2024-04-04T09:31:01.238Z,129.73
2024-04-04T09:32:00.798Z,128.02
2024-04-04T09:33:00.850Z,129.59
2024-04-04T09:34:00.757Z,126.60
2024-04-04T09:35:01.208Z,122.07
2024-04-04T09:36:00.774Z,123.32
2024-04-04T09:37:00.790Z,119.48
2024-04-04T09:38:00.895Z,110.98
2024-04-04T09:39:00.969Z,107.12
2024-04-04T09:40:02.289Z,102.52
2024-04-04T09:41:02.399Z,105.97
2024-04-04T09:42:03.716Z,102.84
2024-04-04T09:43:02.215Z,104.85
2024-04-04T09:44:00.856Z,107.41
2024-04-04T09:45:00.989Z,99.30
2024-04-04T09:46:02.131Z,94.80
2024-04-04T09:47:00.792Z,89.92
2024-04-04T09:48:07.174Z,90.31
2024-04-04T09:49:00.785Z,90.45
2024-04-04T09:50:01.809Z,90.82
2024-04-04T09:51:02.262Z,87.74
2024-04-04T09:52:01.360Z,82.16
2024-04-04T09:53:00.839Z,79.93
2024-04-04T09:54:00.826Z,78.26
2024-04-04T09:55:01.773Z,73.09
2024-04-04T09:56:01.221Z,74.84
2024-04-04T09:57:00.915Z,68.10
2024-04-04T09:58:00.944Z,64.28
2024-04-04T09:59:00.824Z,53.88
2024-04-04T10:00:02.602Z,50.85
2024-04-04T10:01:00.889Z,56.12
2024-04-04T10:02:01.407Z,50.00
2024-04-04T10:03:11.712Z,55.99
2024-04-04T10:04:03.722Z,56.16
2024-04-04T10:05:00.813Z,56.30
2024-04-04T10:06:06.285Z,55.52
2024-04-04T10:07:01.065Z,55.26
2024-04-04T10:08:01.264Z,46.05
2024-04-04T10:09:02.741Z,48.01
2024-04-04T10:10:01.051Z,44.80
2024-04-04T10:11:01.767Z,48.22
2024-04-04T10:12:01.054Z,52.08
2024-04-04T10:13:01.062Z,51.18
2024-04-04T10:14:01.190Z,50.69
2024-04-04T10:15:01.157Z,50.36
2024-04-04T10:16:01.962Z,51.95
2024-04-04T10:17:01.249Z,53.19
2024-04-04T10:18:01.985Z,53.40
2024-04-04T10:19:01.453Z,58.73
2024-04-04T10:20:01.250Z,52.70
2024-04-04T10:21:01.496Z,50.00
2024-04-04T10:22:01.851Z,50.00
2024-04-04T10:23:01.611Z,51.00
2024-04-04T10:24:01.607Z,51.30
2024-04-04T10:25:01.358Z,51.44
2024-04-04T10:26:01.363Z,57.74
2024-04-04T10:27:02.267Z,52.01
2024-04-04T10:28:01.564Z,50.82
2024-04-04T10:29:07.103Z,51.53
2024-04-04T10:30:02.482Z,51.71
2024-04-04T10:31:01.480Z,52.49
2024-04-04T10:32:01.797Z,51.82
2024-04-04T10:33:01.708Z,48.85
2024-04-04T10:34:01.494Z,47.85
2024-04-04T10:35:01.558Z,50.81
2024-04-04T10:36:02.040Z,53.75
2024-04-04T10:37:01.504Z,53.39
2024-04-04T10:38:01.511Z,52.76
2024-04-04T10:39:01.447Z,52.36
2024-04-04T10:40:02.488Z,53.05
2024-04-04T10:41:02.919Z,51.09
2024-04-04T10:42:01.455Z,51.03
2024-04-04T10:43:01.430Z,51.23
2024-04-04T10:44:01.466Z,51.75
2024-04-04T10:45:01.431Z,52.41
2024-04-04T10:46:02.259Z,51.86
2024-04-04T10:47:01.571Z,54.02
2024-04-04T10:48:01.483Z,50.51
2024-04-04T10:49:01.451Z,51.84
2024-04-04T10:50:01.637Z,51.89
2024-04-04T10:51:02.210Z,51.84
2024-04-04T10:52:01.743Z,51.98
2024-04-04T10:53:01.515Z,54.58
2024-04-04T10:54:01.480Z,52.78
2024-04-04T10:55:02.271Z,52.99
2024-04-04T10:56:01.535Z,53.46
2024-04-04T10:57:01.843Z,52.14
2024-04-04T10:58:01.784Z,53.55
2024-04-04T10:59:01.651Z,51.90
2024-04-04T11:00:01.659Z,56.59
2024-04-04T11:01:01.701Z,53.46
2024-04-04T11:02:02.254Z,52.68
2024-04-04T11:03:02.233Z,54.78
2024-04-04T11:04:01.775Z,54.71
2024-04-04T11:05:02.708Z,52.89
2024-04-04T11:06:02.695Z,52.53
2024-04-04T11:07:01.964Z,55.39
2024-04-04T11:08:02.197Z,59.63
2024-04-04T11:09:01.981Z,66.69
2024-04-04T11:10:01.936Z,72.97
2024-04-04T11:11:02.013Z,80.89
2024-04-04T11:12:02.017Z,86.14
2024-04-04T11:13:02.071Z,90.83
2024-04-04T11:14:02.071Z,92.81
2024-04-04T11:15:02.165Z,99.17
2024-04-04T11:16:02.167Z,100.23
2024-04-04T11:17:02.322Z,100.86
2024-04-04T11:18:02.336Z,99.02
2024-04-04T11:19:02.249Z,104.31
2024-04-04T11:20:02.255Z,105.40
2024-04-04T11:21:02.308Z,110.96
2024-04-04T11:22:02.721Z,112.08
2024-04-04T11:23:02.368Z,115.90
2024-04-04T11:24:02.412Z,118.16
2024-04-04T11:25:02.455Z,123.26
2024-04-04T11:26:02.497Z,126.66
2024-04-04T11:27:02.515Z,128.66
2024-04-04T11:28:02.549Z,129.01
2024-04-04T11:29:02.557Z,128.40
2024-04-04T11:30:02.586Z,134.96
2024-04-04T11:31:02.594Z,139.81
2024-04-04T11:32:03.245Z,138.66
2024-04-04T11:33:05.311Z,141.03
2024-04-04T11:34:02.749Z,145.25
2024-04-04T11:35:02.683Z,146.79
2024-04-04T11:36:03.276Z,151.20
2024-04-04T11:37:02.780Z,152.26
2024-04-04T11:38:02.636Z,154.56
2024-04-04T11:39:02.683Z,155.64
2024-04-04T11:40:02.691Z,157.32
2024-04-04T11:41:02.743Z,160.40
2024-04-04T11:42:02.944Z,159.60
2024-04-04T11:43:02.805Z,162.17
2024-04-04T11:44:02.719Z,162.77
2024-04-04T11:45:02.619Z,165.92
2024-04-04T11:46:02.693Z,166.57
2024-04-04T11:47:02.632Z,167.57
2024-04-04T11:48:03.193Z,167.36
2024-04-04T11:49:02.650Z,168.84
2024-04-04T11:50:02.711Z,171.97
2024-04-04T11:51:02.658Z,176.42
2024-04-04T11:52:03.282Z,179.23
2024-04-04T11:53:02.676Z,179.77
2024-04-04T11:54:02.701Z,183.32
2024-04-04T11:55:02.695Z,186.34
2024-04-04T11:56:02.699Z,182.86
2024-04-04T11:57:02.633Z,180.79
2024-04-04T11:58:02.644Z,182.26
2024-04-04T11:59:02.818Z,178.57
2024-04-04T12:00:02.716Z,176.04
2024-04-04T12:01:02.785Z,172.05
2024-04-04T12:02:02.675Z,169.17
2024-04-04T12:03:02.676Z,162.04
2024-04-04T12:04:02.764Z,162.31
2024-04-04T12:05:02.763Z,156.82
2024-04-04T12:06:02.720Z,154.61
2024-04-04T12:07:02.708Z,149.98
2024-04-04T12:08:07.771Z,146.84
2024-04-04T12:09:03.711Z,143.61
2024-04-04T12:10:02.685Z,141.52
2024-04-04T12:11:02.760Z,140.65
2024-04-04T12:12:02.698Z,137.10
2024-04-04T12:13:02.764Z,137.61
2024-04-04T12:14:04.183Z,132.16
2024-04-04T12:15:02.862Z,130.12
2024-04-04T12:16:02.937Z,129.45
2024-04-04T12:17:02.748Z,130.32
2024-04-04T12:18:02.696Z,126.16
2024-04-04T12:19:03.270Z,122.77
2024-04-04T12:20:03.311Z,123.30
2024-04-04T12:21:02.829Z,121.43
2024-04-04T12:22:02.753Z,121.38
2024-04-04T12:23:02.744Z,119.96
2024-04-04T12:24:08.208Z,118.59
2024-04-04T12:25:04.093Z,118.66
2024-04-04T12:26:02.798Z,119.09
2024-04-04T12:27:02.795Z,119.88
2024-04-04T12:28:02.813Z,119.69
2024-04-04T12:29:02.715Z,119.18
2024-04-04T12:30:02.756Z,118.40
2024-04-04T12:31:02.827Z,118.91
2024-04-04T12:32:02.746Z,119.82
2024-04-04T12:33:02.765Z,115.88
2024-04-04T12:34:02.761Z,117.24
2024-04-04T12:35:02.766Z,114.97
2024-04-04T12:36:02.781Z,114.58
2024-04-04T12:37:02.866Z,110.12
2024-04-04T12:38:02.771Z,107.33
2024-04-04T12:39:02.753Z,110.53
2024-04-04T12:40:03.364Z,104.44
2024-04-04T12:41:02.753Z,110.55
2024-04-04T12:42:02.818Z,112.66
2024-04-04T12:43:02.764Z,116.16
2024-04-04T12:44:02.825Z,117.24
2024-04-04T12:45:02.774Z,115.37